Time;durP1;ratioP1;P1;durP2;ratioP2;P2;SDS_P1;SDS_P2;PMS_P1;PMS_P2;Temp;Humidity;BMP_temperature;BMP_pressure;BME280_temperature;BME280_humidity;BME280_pressure;Samples;Min_cycle;Max_cycle;Signal;HPM_P1;HPM_P2
2023/09/20 00:02:21;;;;;;;;;;;;;;;16.41;46.30;100965.31;5055375;28;1007;-57
2023/09/20 00:04:47;;;;;;;;;;;;;;;16.43;45.85;100963.94;5073754;28;1091;-57
2023/09/20 00:07:13;;;;;;;;;;;;;;;16.99;46.32;100959.75;5063310;28;1574;-59
2023/09/20 00:09:38;;;;;;;;;;;;;;;16.74;47.21;100960.50;5059924;28;1020;-57
2023/09/20 00:12:04;;;;;;;;;;;;;;;16.56;46.58;100956.31;5073171;28;896;-57
2023/09/20 00:14:29;;;;;;;;;;;;;;;16.53;45.82;100959.59;5075329;28;1977;-59
2023/09/20 00:16:55;;;;;;;;;;;;;;;17.34;46.44;100960.09;5064001;28;1055;-56
2023/09/20 00:19:21;;;;;;;;;;;;;;;16.83;47.15;100958.03;5059326;28;1170;-58
2023/09/20 00:21:47;;;;;;;;;;;;;;;16.60;46.68;100968.41;5063519;28;1082;-57
2023/09/20 00:24:12;;;;;;;;;;;;;;;16.53;46.05;100956.88;5064243;28;1071;-57
2023/09/20 00:26:38;;;;;;;;;;;;;;;16.43;45.89;100952.97;5055231;28;2220;-57
2023/09/20 00:29:06;;;;;;;;;;;;;;;16.42;45.31;100962.31;5060350;28;1170;-55
2023/09/20 00:31:32;;;;;;;;;;;;;;;16.32;45.58;100961.44;5049315;28;1050;-55
2023/09/20 00:33:58;;;;;;;;;;;;;;;16.30;45.26;100958.97;5071920;28;1909;-56
2023/09/20 00:36:24;;;;;;;;;;;;;;;16.26;45.16;100960.59;5072921;28;833;-53
2023/09/20 00:38:50;;;;;;;;;;;;;;;16.13;45.29;100964.66;5073949;28;971;-56
2023/09/20 00:41:15;;;;;;;;;;;;;;;16.68;45.50;100959.66;5070279;28;1023;-55
2023/09/20 00:43:41;;;;;;;;;;;;;;;16.74;46.47;100958.56;5047281;28;1138;-55
2023/09/20 00:46:09;;;;;;;;;;;;;;;16.50;46.28;100965.63;5048851;28;1311;-54
2023/09/20 00:48:34;;;;;;;;;;;;;;;16.40;46.05;100959.00;5061694;28;1151;-55
2023/09/20 00:51:00;;;;;;;;;;;;;;;16.39;45.54;100951.84;5069641;28;1028;-54
2023/09/20 00:53:28;;;;;;;;;;;;;;;17.10;46.14;100961.44;5054758;28;1901;-55
2023/09/20 00:55:55;;;;;;;;;;;;;;;16.65;46.85;100965.69;5040216;28;1082;-55
2023/09/20 00:58:21;;;;;;;;;;;;;;;16.47;46.25;100958.75;5063637;28;1771;-56
2023/09/20 01:00:47;;;;;;;;;;;;;;;16.37;45.82;100965.03;5059845;28;828;-55
2023/09/20 01:03:18;;;;;;;;;;;;;;;16.39;45.18;100960.09;5060485;28;1038;-55
2023/09/20 01:05:47;;;;;;;;;;;;;;;17.07;46.24;100955.69;5065713;28;1022;-56
2023/09/20 01:08:13;;;;;;;;;;;;;;;16.63;46.60;100959.63;5053611;28;1083;-56
2023/09/20 01:10:39;;;;;;;;;;;;;;;16.45;46.36;100962.88;5071483;28;1253;-55
2023/09/20 01:13:05;;;;;;;;;;;;;;;16.46;45.62;100965.34;5052958;28;1910;-56
2023/09/20 01:15:34;;;;;;;;;;;;;;;16.40;45.57;100955.44;5053051;28;1047;-59
2023/09/20 01:17:59;;;;;;;;;;;;;;;16.28;45.54;100955.66;5065033;28;1034;-59
2023/09/20 01:20:25;;;;;;;;;;;;;;;16.70;45.56;100967.63;5064313;28;1147;-58
2023/09/20 01:22:57;;;;;;;;;;;;;;;16.83;46.26;100960.78;5039303;28;1084;-59
2023/09/20 01:25:25;;;;;;;;;;;;;;;16.48;46.51;100959.56;5077100;28;942;-58
2023/09/20 01:27:55;;;;;;;;;;;;;;;16.43;45.99;100961.22;5063288;28;2504;-57
2023/09/20 01:30:25;;;;;;;;;;;;;;;16.34;45.57;100965.56;5057838;28;1004;-56
2023/09/20 01:32:54;;;;;;;;;;;;;;;16.24;45.50;100957.28;5048757;28;1977;-54
2023/09/20 01:35:21;;;;;;;;;;;;;;;16.31;45.13;100957.84;5075477;28;1027;-54
2023/09/20 01:37:50;;;;;;;;;;;;;;;16.96;46.38;100960.31;5039935;28;1150;-55
2023/09/20 01:40:15;;;;;;;;;;;;;;;16.57;46.41;100952.50;5057316;28;1063;-56
2023/09/20 01:42:44;;;;;;;;;;;;;;;16.47;46.13;100958.75;5067472;28;1100;-55
2023/09/20 01:45:16;;;;;;;;;;;;;;;16.36;45.64;100946.91;5077625;28;1234;-56
2023/09/20 01:47:45;;;;;;;;;;;;;;;16.41;45.31;100949.69;5054898;28;1126;-57
2023/09/20 01:50:12;;;;;;;;;;;;;;;16.85;46.53;100947.63;5076011;28;1103;-57
2023/09/20 01:52:38;;;;;;;;;;;;;;;16.58;46.55;100943.97;5047543;28;1254;-56
2023/09/20 01:55:08;;;;;;;;;;;;;;;16.51;45.76;100943.41;5052805;28;1909;-56
2023/09/20 01:57:34;;;;;;;;;;;;;;;16.49;45.52;100939.28;5058067;28;1850;-56
2023/09/20 01:59:59;;;;;;;;;;;;;;;16.29;45.39;100934.53;5045187;28;1311;-56
2023/09/20 02:02:26;;;;;;;;;;;;;;;16.23;45.24;100934.50;5046566;28;1186;-57
2023/09/20 02:04:51;;;;;;;;;;;;;;;16.85;46.61;100942.13;5063102;28;1043;-57
2023/09/20 02:07:17;;;;;;;;;;;;;;;16.49;46.54;100933.78;5064382;28;1063;-56
2023/09/20 02:09:43;;;;;;;;;;;;;;;16.42;45.96;100932.13;5070516;28;1225;-57
2023/09/20 02:12:08;;;;;;;;;;;;;;;16.41;45.59;100940.59;5045725;28;1111;-56
2023/09/20 02:14:34;;;;;;;;;;;;;;;16.33;45.32;100935.66;5076542;28;1984;-56
2023/09/20 02:17:00;;;;;;;;;;;;;;;16.33;44.94;100935.66;5046005;28;1190;-56
2023/09/20 02:19:26;;;;;;;;;;;;;;;16.41;45.45;100938.72;5039464;28;1635;-56
2023/09/20 02:21:54;;;;;;;;;;;;;;;17.13;46.70;100938.09;5052244;28;1170;-57
2023/09/20 02:24:21;;;;;;;;;;;;;;;16.64;46.80;100938.50;5057691;28;1070;-56
2023/09/20 02:26:48;;;;;;;;;;;;;;;16.53;46.30;100941.22;5062387;28;1867;-55
2023/09/20 02:29:14;;;;;;;;;;;;;;;16.44;45.81;100937.34;5076471;28;928;-56
2023/09/20 02:31:39;;;;;;;;;;;;;;;16.37;45.51;100940.34;5058358;28;1078;-56
2023/09/20 02:34:05;;;;;;;;;;;;;;;16.28;45.58;100939.19;5071407;28;1970;-56
2023/09/20 02:36:30;;;;;;;;;;;;;;;16.25;45.35;100936.97;5046249;28;1437;-56
2023/09/20 02:38:59;;;;;;;;;;;;;;;16.34;45.11;100935.38;5040377;28;1022;-57
2023/09/20 02:41:24;;;;;;;;;;;;;;;16.96;46.81;100921.00;5056710;28;1047;-56
2023/09/20 02:43:51;;;;;;;;;;;;;;;16.54;46.75;100933.81;5061781;28;1019;-56
2023/09/20 02:46:18;;;;;;;;;;;;;;;16.45;46.20;100927.19;5064137;28;1031;-56
2023/09/20 02:48:43;;;;;;;;;;;;;;;16.42;45.44;100921.16;5038246;28;1424;-56
2023/09/20 02:51:09;;;;;;;;;;;;;;;17.01;46.62;100923.78;5056300;28;1063;-57
2023/09/20 02:53:35;;;;;;;;;;;;;;;16.65;46.60;100931.91;5043661;28;1976;-57
2023/09/20 02:56:04;;;;;;;;;;;;;;;16.46;46.20;100926.09;5076473;28;1114;-56
2023/09/20 02:58:29;;;;;;;;;;;;;;;16.54;45.48;100931.06;5056840;28;2613;-56
2023/09/20 03:00:55;;;;;;;;;;;;;;;17.23;46.37;100932.59;5065493;28;1030;-56
2023/09/20 03:03:23;;;;;;;;;;;;;;;16.71;46.70;100931.66;5051854;28;1067;-57
2023/09/20 03:05:49;;;;;;;;;;;;;;;16.59;46.21;100934.66;5056180;28;1027;-56
2023/09/20 03:08:14;;;;;;;;;;;;;;;17.55;46.45;100936.97;5056382;28;1028;-57
2023/09/20 03:10:44;;;;;;;;;;;;;;;16.86;47.23;100938.31;5050699;28;1136;-56
2023/09/20 03:13:16;;;;;;;;;;;;;;;16.73;46.72;100937.72;5052607;28;1910;-58
2023/09/20 03:15:45;;;;;;;;;;;;;;;16.57;46.03;100936.03;5057337;28;1438;-56
2023/09/20 03:18:14;;;;;;;;;;;;;;;16.50;45.89;100940.94;5045910;28;1132;-56
2023/09/20 03:20:44;;;;;;;;;;;;;;;16.40;45.69;100939.78;5055393;28;1085;-56
2023/09/20 03:23:10;;;;;;;;;;;;;;;16.36;45.31;100935.94;5065193;28;984;-57
2023/09/20 03:25:38;;;;;;;;;;;;;;;16.83;45.70;100934.16;5041767;28;1259;-56
2023/09/20 03:28:12;;;;;;;;;;;;;;;16.79;46.44;100933.06;5047644;28;2788;-56
2023/09/20 03:30:39;;;;;;;;;;;;;;;16.59;46.40;100939.31;5044592;28;1610;-57
2023/09/20 03:33:07;;;;;;;;;;;;;;;16.46;45.82;100939.81;5047076;28;1984;-57
2023/09/20 03:35:33;;;;;;;;;;;;;;;16.46;45.51;100939.81;5055327;28;1122;-57
2023/09/20 03:38:00;;;;;;;;;;;;;;;16.35;45.56;100934.28;5041363;28;1530;-58
2023/09/20 03:40:28;;;;;;;;;;;;;;;16.29;45.18;100932.63;5068981;28;1096;-58
2023/09/20 03:42:55;;;;;;;;;;;;;;;16.33;44.81;100935.66;5050043;28;1304;-57
2023/09/20 03:45:20;;;;;;;;;;;;;;;17.02;46.12;100934.50;5052288;28;1205;-58
2023/09/20 03:47:48;;;;;;;;;;;;;;;16.57;46.58;100936.84;5067889;28;1123;-59
2023/09/20 03:50:18;;;;;;;;;;;;;;;16.46;46.09;100943.38;5040224;28;1229;-59
2023/09/20 03:52:43;;;;;;;;;;;;;;;16.43;45.41;100935.69;5055602;28;1131;-60
2023/09/20 03:55:09;;;;;;;;;;;;;;;17.27;46.03;100936.44;5050763;28;1894;-59
2023/09/20 03:57:37;;;;;;;;;;;;;;;16.72;47.24;100933.31;5068015;28;1769;-54
2023/09/20 04:00:06;;;;;;;;;;;;;;;16.62;46.57;100941.53;5043253;28;1384;-59
2023/09/20 04:02:38;;;;;;;;;;;;;;;16.49;46.56;100939.28;5038472;28;898;-58
2023/09/20 04:05:39;;;;;;;;;;;;;;;16.99;47.20;100936.97;5047988;28;1210;-57
2023/09/20 04:07:56;;;;;;;;;;;;;;;16.69;47.10;100944.00;5054104;28;1382;-57
2023/09/20 04:10:21;;;;;;;;;;;;;;;16.66;46.08;100941.81;5059617;28;1024;-57
2023/09/20 04:12:47;;;;;;;;;;;;;;;16.45;45.88;100944.47;5057998;28;1004;-57
2023/09/20 04:15:13;;;;;;;;;;;;;;;16.47;45.45;100936.00;5050209;28;1971;-57
2023/09/20 04:17:38;;;;;;;;;;;;;;;16.39;45.64;100945.56;5059156;28;1055;-57
2023/09/20 04:20:08;;;;;;;;;;;;;;;16.96;46.82;100937.50;5052900;28;1343;-57
2023/09/20 04:22:36;;;;;;;;;;;;;;;16.63;46.73;100934.94;5056754;28;1550;-58
2023/09/20 04:25:02;;;;;;;;;;;;;;;16.54;46.23;100939.31;5073930;28;1127;-58
2023/09/20 04:27:28;;;;;;;;;;;;;;;16.38;45.91;100936.50;5070874;28;2443;-58
2023/09/20 04:29:55;;;;;;;;;;;;;;;16.45;45.43;100932.69;5044505;28;1181;-58
2023/09/20 04:32:21;;;;;;;;;;;;;;;17.08;46.65;100929.81;5060893;28;1300;-58
2023/09/20 04:34:52;;;;;;;;;;;;;;;16.60;47.03;100936.28;5060647;28;1910;-58
2023/09/20 04:37:19;;;;;;;;;;;;;;;16.50;46.33;100938.19;5051738;28;1375;-58
2023/09/20 04:39:45;;;;;;;;;;;;;;;16.98;45.75;100933.38;5065961;28;1229;-58
2023/09/20 04:42:13;;;;;;;;;;;;;;;17.49;45.30;100940.84;5060715;28;1468;-58
2023/09/20 04:44:39;;;;;;;;;;;;;;;17.24;45.64;100942.50;5047668;28;1285;-59
2023/09/20 04:47:04;;;;;;;;;;;;;;;17.07;46.51;100940.00;5060458;28;1059;-58
2023/09/20 04:49:30;;;;;;;;;;;;;;;17.01;46.77;100943.84;5052417;28;1265;-58
2023/09/20 04:52:00;;;;;;;;;;;;;;;16.87;47.21;100943.53;5051659;28;1284;-58
2023/09/20 04:54:26;;;;;;;;;;;;;;;16.77;47.54;100930.59;5071620;28;1972;-58
2023/09/20 04:56:53;;;;;;;;;;;;;;;16.76;47.80;100939.09;5050251;28;1802;-57
2023/09/20 04:59:19;;;;;;;;;;;;;;;16.62;48.14;100941.53;5078478;28;1058;-57
2023/09/20 05:01:45;;;;;;;;;;;;;;;16.59;48.39;100945.63;5057463;28;1150;-58
2023/09/20 05:04:13;;;;;;;;;;;;;;;16.64;48.47;100946.75;5060248;28;1054;-58
2023/09/20 05:06:42;;;;;;;;;;;;;;;16.55;48.76;100944.53;5053334;28;1098;-57
2023/09/20 05:09:08;;;;;;;;;;;;;;;16.49;49.09;100947.50;5053244;28;1293;-56
2023/09/20 05:11:34;;;;;;;;;;;;;;;16.43;49.33;100946.66;5040213;28;1011;-57
2023/09/20 05:14:00;;;;;;;;;;;;;;;16.46;49.17;100951.63;5051040;28;1898;-57
2023/09/20 05:16:26;;;;;;;;;;;;;;;16.40;49.23;100949.97;5051579;28;1625;-58
2023/09/20 05:18:52;;;;;;;;;;;;;;;16.46;49.34;100950.81;5052970;28;1186;-58
2023/09/20 05:21:17;;;;;;;;;;;;;;;17.37;47.24;100954.84;5053294;28;1190;-58
2023/09/20 05:23:43;;;;;;;;;;;;;;;16.83;48.66;100961.63;5063496;28;995;-58
2023/09/20 05:26:08;;;;;;;;;;;;;;;16.72;49.26;100955.28;5076580;28;1852;-58
2023/09/20 05:28:35;;;;;;;;;;;;;;;16.56;49.63;100959.06;5060418;28;1063;-58
2023/09/20 05:31:02;;;;;;;;;;;;;;;16.53;49.58;100965.09;5070143;28;1226;-58
2023/09/20 05:33:30;;;;;;;;;;;;;;;16.47;50.01;100961.50;5053595;28;1968;-58
2023/09/20 05:35:57;;;;;;;;;;;;;;;16.39;50.10;100968.31;5077142;28;1073;-58
2023/09/20 05:38:24;;;;;;;;;;;;;;;16.31;50.27;100971.56;5065664;28;1030;-59
2023/09/20 05:40:49;;;;;;;;;;;;;;;16.26;50.60;100968.81;5064907;28;991;-59
2023/09/20 05:43:16;;;;;;;;;;;;;;;16.75;49.87;100971.22;5065442;28;1505;-57
2023/09/20 05:45:41;;;;;;;;;;;;;;;17.37;48.06;100963.09;5063452;28;1186;-58
2023/09/20 05:48:09;;;;;;;;;;;;;;;16.90;49.48;100967.72;5062962;28;1059;-58
2023/09/20 05:50:35;;;;;;;;;;;;;;;16.71;50.05;100977.53;5066404;28;1245;-57
2023/09/20 05:53:04;;;;;;;;;;;;;;;16.61;50.29;100970.06;5061935;28;1909;-57
2023/09/20 05:55:32;;;;;;;;;;;;;;;16.52;50.56;100974.41;5062426;28;1258;-57
2023/09/20 05:57:58;;;;;;;;;;;;;;;16.43;50.82;100979.59;5062526;28;1908;-58
2023/09/20 06:00:23;;;;;;;;;;;;;;;16.38;51.07;100972.19;5068594;28;1265;-58
2023/09/20 06:02:52;;;;;;;;;;;;;;;16.36;50.78;100971.59;5046182;28;899;-58
2023/09/20 06:05:19;;;;;;;;;;;;;;;16.62;50.74;100977.22;5076430;28;1106;-57
2023/09/20 06:07:44;;;;;;;;;;;;;;;17.52;48.49;100972.47;5068809;28;1050;-58
2023/09/20 06:10:10;;;;;;;;;;;;;;;16.92;50.04;100983.94;5063605;28;1126;-59
2023/09/20 06:12:36;;;;;;;;;;;;;;;16.73;50.42;100983.56;5076136;28;1115;-59
2023/09/20 06:15:02;;;;;;;;;;;;;;;16.60;50.91;100980.22;5066975;28;1922;-57
2023/09/20 06:17:29;;;;;;;;;;;;;;;16.56;51.13;100973.63;5067365;28;1051;-59
2023/09/20 06:19:57;;;;;;;;;;;;;;;16.51;51.17;100989.22;5074870;28;1028;-56
2023/09/20 06:22:31;;;;;;;;;;;;;;;16.72;51.02;100982.75;5070614;28;1166;-59
2023/09/20 06:24:58;;;;;;;;;;;;;;;17.49;48.89;100989.50;5059115;28;1026;-62
2023/09/20 06:27:27;;;;;;;;;;;;;;;16.96;50.38;100992.44;5062280;28;1908;-60
2023/09/20 06:29:52;;;;;;;;;;;;;;;16.79;51.05;100995.38;5075912;28;998;-59
2023/09/20 06:32:18;;;;;;;;;;;;;;;16.65;51.25;100998.66;5075971;28;979;-59
2023/09/20 06:34:43;;;;;;;;;;;;;;;16.62;51.34;100995.59;5068261;28;1906;-59
2023/09/20 06:37:11;;;;;;;;;;;;;;;16.57;51.36;101001.91;5057604;28;1127;-59
2023/09/20 06:39:37;;;;;;;;;;;;;;;16.57;51.15;101008.22;5066011;28;829;-59
2023/09/20 06:42:03;;;;;;;;;;;;;;;16.47;51.59;101002.69;5075698;28;1211;-58
2023/09/20 06:44:28;;;;;;;;;;;;;;;16.39;51.64;101006.75;5038360;28;1008;-59
2023/09/20 06:46:54;;;;;;;;;;;;;;;16.40;51.60;101013.09;5055542;28;1442;-60
2023/09/20 06:49:20;;;;;;;;;;;;;;;17.36;49.95;101013.69;5056381;28;1446;-59
2023/09/20 06:51:45;;;;;;;;;;;;;;;17.25;49.97;101017.50;5059447;28;1087;-59
2023/09/20 06:54:11;;;;;;;;;;;;;;;16.84;51.07;101014.63;5063940;28;1960;-60
2023/09/20 06:56:36;;;;;;;;;;;;;;;16.76;51.26;101014.06;5071977;28;1831;-60
2023/09/20 06:59:02;;;;;;;;;;;;;;;16.67;51.52;101017.59;5071790;28;1093;-60
2023/09/20 07:01:29;;;;;;;;;;;;;;;16.56;51.91;101011.22;5064374;28;1288;-60
2023/09/20 07:03:54;;;;;;;;;;;;;;;16.54;51.99;101019.72;5062087;28;959;-62
2023/09/20 07:06:20;;;;;;;;;;;;;;;16.53;51.79;101025.50;5059803;28;1158;-61
2023/09/20 07:08:45;;;;;;;;;;;;;;;16.46;51.81;101027.66;5063031;28;1182;-61
2023/09/20 07:11:13;;;;;;;;;;;;;;;17.50;49.79;101024.16;5067530;28;1162;-61
2023/09/20 07:13:38;;;;;;;;;;;;;;;17.17;50.94;101020.81;5070599;28;1894;-59
2023/09/20 07:16:07;;;;;;;;;;;;;;;16.87;51.52;101020.44;5066783;28;900;-59
2023/09/20 07:18:32;;;;;;;;;;;;;;;16.76;51.61;101025.03;5057160;28;1074;-59
2023/09/20 07:20:58;;;;;;;;;;;;;;;16.61;52.03;101022.25;5063608;28;1091;-58
2023/09/20 07:23:23;;;;;;;;;;;;;;;16.58;52.05;101020.84;5066096;28;1288;-56
2023/09/20 07:25:50;;;;;;;;;;;;;;;16.59;52.05;101021.66;5070836;28;1078;-57
2023/09/20 07:28:16;;;;;;;;;;;;;;;16.52;52.10;101021.09;5065616;28;2620;-59
2023/09/20 07:30:44;;;;;;;;;;;;;;;16.48;52.31;101015.31;5061012;28;1061;-57
2023/09/20 07:33:11;;;;;;;;;;;;;;;16.45;52.12;101018.56;5065593;28;1902;-60
2023/09/20 07:35:39;;;;;;;;;;;;;;;16.43;52.28;101016.09;5075098;28;922;-61
2023/09/20 07:38:13;;;;;;;;;;;;;;;16.35;52.59;101018.53;5062602;28;1039;-63
2023/09/20 07:40:40;;;;;;;;;;;;;;;16.29;52.50;101012.19;5063086;28;1202;-62
2023/09/20 07:43:06;;;;;;;;;;;;;;;16.98;51.63;101012.25;5064621;28;1178;-61
2023/09/20 07:45:33;;;;;;;;;;;;;;;17.40;50.59;101020.31;5066514;28;1364;-60
2023/09/20 07:48:00;;;;;;;;;;;;;;;16.93;51.93;101024.03;5064459;28;1514;-63
2023/09/20 07:50:26;;;;;;;;;;;;;;;16.77;52.42;101034.94;5066146;28;1293;-58
2023/09/20 07:52:51;;;;;;;;;;;;;;;16.70;52.53;101033.53;5070861;28;1369;-59
2023/09/20 07:55:17;;;;;;;;;;;;;;;16.60;52.68;101034.31;5059348;28;1973;-59
2023/09/20 07:57:43;;;;;;;;;;;;;;;16.62;52.45;101034.03;5059075;28;2227;-59
2023/09/20 08:00:15;;;;;;;;;;;;;;;16.52;52.48;101032.06;5059082;28;1042;-59
2023/09/20 08:02:43;;;;;;;;;;;;;;;16.44;52.70;101025.19;5076195;28;1039;-60
2023/09/20 08:05:12;;;;;;;;;;;;;;;16.46;52.63;101033.16;5079267;28;1030;-58
2023/09/20 08:07:38;;;;;;;;;;;;;;;17.37;51.51;101037.31;5073175;28;1153;-59
2023/09/20 08:10:04;;;;;;;;;;;;;;;17.17;51.78;101034.56;5071409;28;993;-59
2023/09/20 08:12:30;;;;;;;;;;;;;;;16.85;52.80;101030.84;5065741;28;1229;-60
2023/09/20 08:14:57;;;;;;;;;;;;;;;16.69;52.73;101040.94;5068385;28;1914;-61
2023/09/20 08:20:11;;;;;;;;;;;;;;;16.64;52.78;101038.16;5066491;28;1197;-60
2023/09/20 09:00:52;;;;;;;;;;;;;;;17.23;52.35;101027.97;5041910;28;1122;-56
2023/09/20 09:03:17;;;;;;;;;;;;;;;17.01;52.78;101034.50;5054172;28;1011;-57
2023/09/20 09:05:43;;;;;;;;;;;;;;;16.82;53.20;101027.81;5044140;28;1099;-57
2023/09/20 09:08:10;;;;;;;;;;;;;;;16.76;53.05;101026.97;5077680;28;1027;-57
2023/09/20 09:10:35;;;;;;;;;;;;;;;16.71;53.14;101025.03;5074140;28;1146;-58
2023/09/20 09:13:01;;;;;;;;;;;;;;;16.63;53.22;101022.78;5068650;28;1126;-56
2023/09/20 09:15:27;;;;;;;;;;;;;;;16.59;53.21;101016.16;5076910;28;1910;-57
2023/09/20 09:17:54;;;;;;;;;;;;;;;16.55;53.26;101026.03;5077534;28;1066;-55
2023/09/20 09:20:19;;;;;;;;;;;;;;;16.54;53.36;101025.22;5079375;28;1106;-58
2023/09/20 09:22:45;;;;;;;;;;;;;;;16.54;53.09;101019.72;5070491;28;1178;-58
2023/09/20 09:25:16;;;;;;;;;;;;;;;16.50;53.19;101012.31;5040185;28;1316;-59
2023/09/20 09:27:42;;;;;;;;;;;;;;;16.47;52.97;101013.66;5064934;28;2744;-61
2023/09/20 09:30:13;;;;;;;;;;;;;;;16.49;53.05;101016.94;5077162;28;1158;-61
2023/09/20 09:32:39;;;;;;;;;;;;;;;17.69;51.52;101010.69;5043650;28;1143;-61
2023/09/20 09:35:05;;;;;;;;;;;;;;;17.16;52.79;101008.16;5071103;28;1906;-61
2023/09/20 09:37:34;;;;;;;;;;;;;;;16.92;53.39;101003.16;5068153;28;1336;-61
2023/09/20 09:40:03;;;;;;;;;;;;;;;16.84;53.63;101006.38;5067182;28;1018;-63
2023/09/20 09:42:29;;;;;;;;;;;;;;;16.74;53.64;101001.69;5061472;28;1226;-62
2023/09/20 09:44:55;;;;;;;;;;;;;;;16.73;53.30;101011.84;5065123;28;1030;-64
2023/09/20 09:47:21;;;;;;;;;;;;;;;16.70;53.58;101004.13;5064292;28;1460;-63
2023/09/20 09:49:48;;;;;;;;;;;;;;;16.60;53.71;101017.84;5063026;28;1066;-60
2023/09/20 09:52:16;;;;;;;;;;;;;;;16.62;53.49;101018.41;5062861;28;1284;-62
2023/09/20 09:54:43;;;;;;;;;;;;;;;16.58;53.28;101014.53;5065590;28;1903;-63
2023/09/20 09:57:08;;;;;;;;;;;;;;;16.54;53.48;101016.16;5069465;28;2274;-62
2023/09/20 09:59:33;;;;;;;;;;;;;;;16.54;53.44;101016.16;5045781;28;1047;-62
2023/09/20 10:02:01;;;;;;;;;;;;;;;16.51;53.45;101019.44;5075314;28;1344;-62
2023/09/20 10:04:26;;;;;;;;;;;;;;;16.51;53.47;101019.44;5076436;28;1046;-62
2023/09/20 10:07:03;;;;;;;;;;;;;;;16.45;53.37;101015.00;5060648;28;1055;-65
2023/09/20 10:09:30;;;;;;;;;;;;;;;17.52;52.32;101010.97;5076537;28;1018;-62
2023/09/20 10:11:55;;;;;;;;;;;;;;;17.04;53.70;101012.00;5056939;28;1082;-62
2023/09/20 10:14:22;;;;;;;;;;;;;;;16.92;53.60;101005.91;5054200;28;1902;-60
2023/09/20 10:16:48;;;;;;;;;;;;;;;16.77;53.68;101007.47;5069163;28;1315;-61
2023/09/20 10:19:14;;;;;;;;;;;;;;;16.69;54.07;101008.00;5041541;28;1063;-60
2023/09/20 10:21:40;;;;;;;;;;;;;;;16.67;53.75;101004.69;5063742;28;1183;-61
2023/09/20 10:24:08;;;;;;;;;;;;;;;16.68;53.69;100991.78;5051396;28;1303;-59
2023/09/20 10:26:39;;;;;;;;;;;;;;;16.59;53.75;101000.53;5061572;28;1867;-60
2023/09/20 10:29:26;;;;;;;;;;;;;;;16.57;53.85;100994.47;5065620;28;1234;-60
2023/09/20 10:32:13;;;;;;;;;;;;;;;16.53;53.77;100995.28;5060620;28;1147;-61
2023/09/20 10:34:39;;;;;;;;;;;;;;;16.53;53.63;100993.38;5061699;28;1972;-62
2023/09/20 10:37:10;;;;;;;;;;;;;;;17.06;53.76;100996.03;5061854;28;1198;-60
2023/09/20 10:39:39;;;;;;;;;;;;;;;17.44;52.95;100988.38;5061944;28;1280;-62
2023/09/20 10:42:14;;;;;;;;;;;;;;;17.03;53.85;100998.53;5066584;28;1254;-60
2023/09/20 10:44:42;;;;;;;;;;;;;;;16.89;53.87;100992.72;5064222;28;1205;-60
2023/09/20 10:47:12;;;;;;;;;;;;;;;16.80;54.16;100988.81;5059155;28;1143;-60
2023/09/20 10:49:48;;;;;;;;;;;;;;;16.74;54.13;100996.19;5060139;28;1158;-61
2023/09/20 10:52:33;;;;;;;;;;;;;;;16.70;53.86;100995.91;5059195;28;1258;-59
2023/09/20 10:55:22;;;;;;;;;;;;;;;16.69;53.79;100991.53;5069642;28;1918;-61
2023/09/20 10:57:48;;;;;;;;;;;;;;;16.54;54.19;100988.72;5055198;28;1825;-59
2023/09/20 11:00:14;;;;;;;;;;;;;;;16.54;53.90;100984.03;5066994;28;1093;-59
2023/09/20 11:02:40;;;;;;;;;;;;;;;16.57;53.92;100979.94;5076029;28;1097;-59
2023/09/20 11:05:06;;;;;;;;;;;;;;;16.55;53.70;100996.69;5069498;28;862;-59
2023/09/20 11:07:32;;;;;;;;;;;;;;;16.53;53.98;100987.06;5072616;28;1122;-62
2023/09/20 11:09:58;;;;;;;;;;;;;;;16.51;53.75;100986.47;5057793;28;1207;-60
2023/09/20 11:12:23;;;;;;;;;;;;;;;17.23;53.76;100982.06;5065199;28;1087;-58
2023/09/20 11:14:50;;;;;;;;;;;;;;;17.40;53.60;100983.72;5072496;28;1910;-59
2023/09/20 11:17:16;;;;;;;;;;;;;;;16.98;54.28;100980.09;5064117;28;1276;-62
2023/09/20 11:19:42;;;;;;;;;;;;;;;16.84;54.60;100984.41;5062290;28;1301;-61
2023/09/20 11:22:07;;;;;;;;;;;;;;;16.80;54.45;100980.56;5060130;28;1261;-60
2023/09/20 11:24:34;;;;;;;;;;;;;;;16.75;54.22;100976.69;5060608;28;1242;-62
2023/09/20 11:27:00;;;;;;;;;;;;;;;16.66;54.28;100978.34;5060329;28;2379;-62
2023/09/20 11:29:25;;;;;;;;;;;;;;;16.65;54.08;100987.66;5066755;28;1194;-60
2023/09/20 11:31:54;;;;;;;;;;;;;;;16.65;54.00;100981.31;5054427;28;1234;-60
2023/09/20 11:34:19;;;;;;;;;;;;;;;16.60;54.00;100984.88;5063166;28;2011;-61
2023/09/20 11:36:46;;;;;;;;;;;;;;;16.52;53.93;100979.91;5070355;28;1346;-60
2023/09/20 11:39:14;;;;;;;;;;;;;;;16.53;54.13;100979.63;5075712;28;1083;-62
2023/09/20 11:41:44;;;;;;;;;;;;;;;16.46;53.90;100981.00;5070226;28;995;-61
2023/09/20 11:44:09;;;;;;;;;;;;;;;16.46;54.01;100972.75;5062412;28;1272;-58
2023/09/20 11:46:35;;;;;;;;;;;;;;;16.40;54.23;100969.16;5075697;28;1304;-59
2023/09/20 11:49:01;;;;;;;;;;;;;;;16.53;54.12;100962.34;5075223;28;1217;-59
2023/09/20 11:51:30;;;;;;;;;;;;;;;17.64;53.73;100959.25;5075382;28;1339;-60
2023/09/20 11:53:56;;;;;;;;;;;;;;;17.13;54.71;100959.25;5064348;28;1910;-59
2023/09/20 11:56:26;;;;;;;;;;;;;;;16.95;54.58;100953.16;5073311;28;1849;-60
2023/09/20 11:58:53;;;;;;;;;;;;;;;16.81;54.80;100958.31;5059532;28;1199;-61
2023/09/20 12:01:25;;;;;;;;;;;;;;;16.81;54.56;100958.31;5066615;28;1245;-61
2023/09/20 12:03:51;;;;;;;;;;;;;;;16.73;54.43;100956.94;5052825;28;1136;-58
2023/09/20 12:06:17;;;;;;;;;;;;;;;16.67;54.41;100952.50;5051097;28;1062;-59
2023/09/20 12:08:43;;;;;;;;;;;;;;;16.63;54.50;100956.06;5059746;28;1430;-60
2023/09/20 12:11:09;;;;;;;;;;;;;;;16.58;54.51;100954.16;5063855;28;1200;-61
2023/09/20 12:13:35;;;;;;;;;;;;;;;16.58;54.26;100948.66;5074275;28;1972;-60
2023/09/20 12:16:00;;;;;;;;;;;;;;;16.54;54.49;100950.28;5074785;28;1375;-57
2023/09/20 12:18:27;;;;;;;;;;;;;;;16.52;54.34;100947.81;5062839;28;881;-62
2023/09/20 12:20:52;;;;;;;;;;;;;;;16.53;54.12;100943.13;5068542;28;1099;-60
2023/09/20 12:23:18;;;;;;;;;;;;;;;16.48;54.48;100948.59;5055526;28;1051;-59
2023/09/20 12:25:43;;;;;;;;;;;;;;;17.38;54.45;100940.03;5061344;28;1103;-60
2023/09/20 12:28:10;;;;;;;;;;;;;;;17.31;54.54;100939.47;5070653;28;2658;-60
2023/09/20 12:30:36;;;;;;;;;;;;;;;17.04;55.12;100936.97;5072146;28;1031;-59
2023/09/20 12:33:01;;;;;;;;;;;;;;;16.90;55.05;100940.25;5078090;28;1449;-57
2023/09/20 12:35:28;;;;;;;;;;;;;;;16.80;54.98;100944.88;5077911;28;1906;-60
2023/09/20 12:37:54;;;;;;;;;;;;;;;16.75;54.64;100937.44;5078296;28;1307;-59
2023/09/20 12:40:24;;;;;;;;;;;;;;;16.73;54.73;100947.84;5076935;28;1410;-60
2023/09/20 12:42:50;;;;;;;;;;;;;;;16.67;54.44;100935.22;5062037;28;1363;-60
2023/09/20 12:45:15;;;;;;;;;;;;;;;16.62;54.39;100929.72;5078312;28;1122;-59
2023/09/20 12:47:42;;;;;;;;;;;;;;;16.64;54.39;100936.59;5060410;28;1156;-59
2023/09/20 12:50:12;;;;;;;;;;;;;;;16.58;54.35;100926.69;5057804;28;1038;-61
2023/09/20 12:52:37;;;;;;;;;;;;;;;16.55;54.40;100932.69;5075893;28;1422;-61
2023/09/20 12:55:03;;;;;;;;;;;;;;;16.55;54.29;100927.22;5077116;28;1918;-59
2023/09/20 12:57:29;;;;;;;;;;;;;;;16.79;54.84;100929.47;5065344;28;2408;-61
2023/09/20 12:59:57;;;;;;;;;;;;;;;17.55;54.44;100914.19;5054103;28;1422;-62
2023/09/20 13:02:27;;;;;;;;;;;;;;;17.10;55.16;100913.91;5077177;28;1379;-61
2023/09/20 13:04:53;;;;;;;;;;;;;;;16.90;55.14;100906.44;5071128;28;1370;-62
2023/09/20 13:07:19;;;;;;;;;;;;;;;16.82;55.16;100915.22;5066371;28;1374;-62
2023/09/20 13:09:44;;;;;;;;;;;;;;;16.72;55.14;100916.84;5067166;28;1339;-62
2023/09/20 13:12:12;;;;;;;;;;;;;;;16.72;54.75;100911.34;5074433;28;1124;-54
2023/09/20 13:14:37;;;;;;;;;;;;;;;16.63;54.84;100906.66;5077252;28;1909;-57
2023/09/20 13:17:03;;;;;;;;;;;;;;;16.66;54.58;100901.47;5073705;28;1093;-58
2023/09/20 13:19:28;;;;;;;;;;;;;;;16.61;54.43;100904.19;5061505;28;1577;-60
2023/09/20 13:21:54;;;;;;;;;;;;;;;16.60;54.35;100908.81;5073278;28;1125;-58
2023/09/20 13:24:20;;;;;;;;;;;;;;;16.55;54.51;100908.84;5077789;28;1196;-59
2023/09/20 13:26:46;;;;;;;;;;;;;;;16.50;54.44;100900.56;5064827;28;1869;-59
2023/09/20 13:29:13;;;;;;;;;;;;;;;16.51;54.25;100898.66;5066911;28;1317;-59